Time;durP1;ratioP1;P1;durP2;ratioP2;P2;SDS_P1;SDS_P2;PMS_P1;PMS_P2;Temp;Humidity;BMP_temperature;BMP_pressure;BME280_temperature;BME280_humidity;BME280_pressure;Samples;Min_cycle;Max_cycle;Signal;HPM_P1;HPM_P2
2022/01/31 00:00:29;;;;;;;20.88;11.83;;;;;;;0.16;100.00;98556.12;1708165;84;21212;-85
2022/01/31 00:03:35;;;;;;;23.67;12.80;;;;;;;0.14;100.00;98557.64;1707099;84;21366;-85
2022/01/31 00:06:42;;;;;;;22.13;12.70;;;;;;;0.12;100.00;98554.23;1708049;84;21785;-85
2022/01/31 00:09:48;;;;;;;22.42;11.88;;;;;;;0.12;100.00;98548.86;1706757;84;21240;-77
2022/01/31 00:13:01;;;;;;;23.45;13.58;;;;;;;0.13;100.00;98538.45;1707806;82;22100;-77
2022/01/31 00:16:03;;;;;;;22.93;11.88;;;;;;;0.07;100.00;98531.00;1706187;84;21224;-84
2022/01/31 00:19:11;;;;;;;22.50;13.25;;;;;;;0.06;100.00;98533.35;1707225;84;21667;-84
2022/01/31 00:22:18;;;;;;;25.30;14.43;;;;;;;0.02;100.00;98524.40;1706812;84;21889;-77
2022/01/31 00:25:25;;;;;;;17.77;10.85;;;;;;;-0.04;100.00;98531.23;1705836;84;21181;-85
2022/01/31 00:28:30;;;;;;;20.40;12.85;;;;;;;-0.06;100.00;98514.40;1705829;84;21165;-84
2022/01/31 00:31:37;;;;;;;25.10;13.05;;;;;;;-0.17;100.00;98510.09;1706661;84;21346;-85
2022/01/31 00:34:44;;;;;;;19.45;11.53;;;;;;;-0.27;100.00;98504.80;1707351;84;21300;-84
2022/01/31 00:37:49;;;;;;;20.80;12.10;;;;;;;-0.29;100.00;98501.89;1705722;84;21189;-84
2022/01/31 00:40:56;;;;;;;17.42;11.28;;;;;;;-0.29;100.00;98500.05;1707228;84;21216;-84
2022/01/31 00:44:13;;;;;;;30.12;13.75;;;;;;;-0.24;100.00;98498.75;1706237;84;21960;-78
2022/01/31 00:47:22;;;;;;;29.95;14.60;;;;;;;-0.21;100.00;98505.18;1706524;84;21347;-78
2022/01/31 00:50:18;;;;;;;21.07;12.20;;;;;;;-0.26;100.00;98515.88;1707455;84;21656;-77
2022/01/31 00:53:23;;;;;;;19.17;11.63;;;;;;;-0.25;100.00;98515.37;1706388;84;21893;-84
2022/01/31 00:56:29;;;;;;;17.77;12.18;;;;;;;-0.22;100.00;98537.93;1710333;83;21333;-76
2022/01/31 00:59:35;;;;;;;18.52;12.07;;;;;;;-0.19;100.00;98538.11;1724463;83;21291;-84
2022/01/31 01:02:41;;;;;;;17.87;11.68;;;;;;;-0.13;100.00;98530.80;1718257;83;21321;-84
2022/01/31 01:05:46;;;;;;;17.67;12.23;;;;;;;-0.13;100.00;98531.65;1695225;84;21596;-77
2022/01/31 01:08:50;;;;;;;19.35;12.73;;;;;;;-0.13;100.00;98518.21;1696808;84;21275;-76
2022/01/31 01:11:56;;;;;;;19.17;12.40;;;;;;;-0.14;100.00;98511.62;1700247;83;21853;-84
2022/01/31 01:15:02;;;;;;;19.85;11.60;;;;;;;-0.13;100.00;98511.99;1718668;82;21177;-83
2022/01/31 01:18:09;;;;;;;21.30;13.53;;;;;;;-0.12;100.00;98502.42;1706284;84;21319;-84
2022/01/31 01:21:14;;;;;;;23.12;13.88;;;;;;;-0.07;100.00;98504.66;1701589;84;21759;-76
2022/01/31 01:24:20;;;;;;;21.05;13.45;;;;;;;-0.05;100.00;98508.02;1700693;84;21936;-77
2022/01/31 01:27:25;;;;;;;20.43;13.35;;;;;;;-0.02;100.00;98501.00;1679588;84;21771;-84
2022/01/31 01:30:32;;;;;;;21.97;12.88;;;;;;;0.03;100.00;98497.36;1664954;86;21680;-77
2022/01/31 01:33:39;;;;;;;20.05;13.13;;;;;;;0.04;100.00;98500.38;1684650;84;21637;-85
2022/01/31 01:36:47;;;;;;;21.97;12.68;;;;;;;0.06;100.00;98501.09;1701106;84;21363;-77
2022/01/31 01:39:53;;;;;;;21.37;13.18;;;;;;;0.03;100.00;98497.36;1701682;84;21296;-85
2022/01/31 01:42:58;;;;;;;20.30;13.00;;;;;;;0.01;100.00;98502.55;1701900;83;21316;-85
2022/01/31 01:46:04;;;;;;;21.70;13.08;;;;;;;0.05;100.00;98506.13;1700759;84;21193;-78
2022/01/31 01:49:09;;;;;;;18.48;12.13;;;;;;;0.16;100.00;98507.73;1701979;84;21174;-85
2022/01/31 01:52:15;;;;;;;25.12;12.25;;;;;;;0.20;100.00;98505.08;1700761;84;21351;-85
2022/01/31 01:55:21;;;;;;;23.38;13.53;;;;;;;0.20;100.00;98501.05;1700497;84;21185;-77
2022/01/31 01:58:25;;;;;;;21.62;12.23;;;;;;;0.17;100.00;98496.81;1682922;84;21332;-81
2022/01/31 02:01:32;;;;;;;19.20;13.15;;;;;;;0.15;100.00;98496.64;1700591;84;21735;-84
2022/01/31 02:04:37;;;;;;;23.00;12.68;;;;;;;0.11;100.00;98489.38;1700974;84;21359;-85
2022/01/31 02:07:53;;;;;;;27.15;13.20;;;;;;;0.09;100.00;98488.66;1675011;83;21190;-78
2022/01/31 02:10:59;;;;;;;27.35;14.33;;;;;;;0.08;100.00;98492.36;1699999;83;21327;-84
2022/01/31 02:14:09;;;;;;;27.07;13.83;;;;;;;0.07;100.00;98486.64;1700141;84;21340;-78
2022/01/31 02:17:17;;;;;;;18.92;11.85;;;;;;;0.07;100.00;98484.45;1620447;86;21864;-77
2022/01/31 02:20:25;;;;;;;19.82;12.85;;;;;;;0.10;100.00;98480.97;1654481;86;21306;-77
2022/01/31 02:23:30;;;;;;;22.32;14.35;;;;;;;0.05;100.00;98471.18;1680868;84;21292;-85
2022/01/31 02:26:38;;;;;;;23.70;12.80;;;;;;;0.07;100.00;98465.64;1661079;86;21250;-77
2022/01/31 02:29:46;;;;;;;22.37;12.73;;;;;;;0.08;100.00;98460.60;1680966;85;21178;-84
2022/01/31 02:32:53;;;;;;;18.70;12.37;;;;;;;0.04;100.00;98457.37;1660109;86;21798;-77
2022/01/31 02:35:59;;;;;;;20.55;13.18;;;;;;;-0.03;100.00;98465.22;1657417;85;21316;-78
2022/01/31 02:39:04;;;;;;;20.97;13.20;;;;;;;-0.01;100.00;98459.68;1663553;85;21471;-85
2022/01/31 02:42:10;;;;;;;25.65;12.80;;;;;;;-0.01;100.00;98452.45;1680094;85;21355;-84
2022/01/31 02:45:16;;;;;;;20.27;12.55;;;;;;;0.01;100.00;98444.26;1662724;86;21341;-76
2022/01/31 02:48:24;;;;;;;24.27;13.18;;;;;;;0.07;100.00;98449.51;1680393;85;21300;-78
2022/01/31 02:51:31;;;;;;;22.90;13.30;;;;;;;0.06;100.00;98460.77;1662806;86;21346;-83
2022/01/31 02:54:36;;;;;;;23.45;12.93;;;;;;;0.07;100.00;98451.70;1679292;85;21174;-86
2022/01/31 02:57:42;;;;;;;20.02;12.88;;;;;;;0.05;100.00;98452.36;1661856;86;21334;-78
2022/01/31 03:00:48;;;;;;;20.65;12.40;;;;;;;0.05;100.00;98444.77;1680790;85;21361;-86
2022/01/31 03:04:04;;;;;;;20.37;13.05;;;;;;;0.05;100.00;98440.73;1661716;86;21340;-84
2022/01/31 03:07:09;;;;;;;22.80;14.03;;;;;;;0.04;100.00;98431.83;1679757;84;21857;-85
2022/01/31 03:10:16;;;;;;;23.42;14.13;;;;;;;0.02;100.00;98428.97;1663288;86;21290;-83
2022/01/31 03:13:21;;;;;;;20.12;12.20;;;;;;;-0.01;100.00;98442.20;1680800;85;21182;-76
2022/01/31 03:16:28;;;;;;;24.12;13.83;;;;;;;-0.03;100.00;98444.22;1666409;83;21341;-76
2022/01/31 03:19:42;;;;;;;20.45;13.65;;;;;;;-0.06;100.00;98439.98;1732814;83;21168;-76
2022/01/31 03:22:44;;;;;;;23.18;14.15;;;;;;;-0.08;100.00;98431.24;1731805;83;21309;-84
2022/01/31 03:25:49;;;;;;;22.35;12.55;;;;;;;-0.08;100.00;98420.49;1732431;83;21330;-84
2022/01/31 03:28:54;;;;;;;24.72;13.83;;;;;;;-0.10;100.00;98424.31;1730745;83;21298;-84
2022/01/31 03:31:59;;;;;;;20.05;12.47;;;;;;;-0.18;100.00;98424.27;1732264;83;21196;-77
2022/01/31 03:35:07;;;;;;;20.05;12.33;;;;;;;-0.20;100.00;98415.00;1731304;83;21275;-84
2022/01/31 03:38:12;;;;;;;23.27;11.33;;;;;;;-0.22;100.00;98422.88;1732600;82;21279;-77
2022/01/31 03:41:20;;;;;;;20.15;11.85;;;;;;;-0.18;100.00;98432.33;1732341;83;21813;-77
2022/01/31 03:44:25;;;;;;;17.82;10.55;;;;;;;-0.12;100.00;98430.36;1732733;83;21188;-77
2022/01/31 03:47:30;;;;;;;18.35;10.45;;;;;;;-0.02;100.00;98424.40;1732864;83;21319;-85
2022/01/31 03:50:35;;;;;;;17.10;10.90;;;;;;;0.05;100.00;98421.92;1733122;83;21318;-77
2022/01/31 03:53:41;;;;;;;18.20;10.40;;;;;;;0.14;100.00;98426.36;1733108;82;21287;-79
2022/01/31 03:56:46;;;;;;;20.48;11.53;;;;;;;0.21;100.00;98422.91;1732383;83;21343;-85
2022/01/31 03:59:47;;;;;;;20.72;10.90;;;;;;;0.30;100.00;98424.31;1704956;83;21225;-84
2022/01/31 04:02:39;;;;;;;19.30;10.68;;;;;;;0.35;100.00;98431.41;1732833;83;21179;-85
2022/01/31 04:05:44;;;;;;;17.87;9.63;;;;;;;0.35;100.00;98420.66;1733066;83;21892;-78
2022/01/31 04:08:48;;;;;;;17.40;10.13;;;;;;;0.35;100.00;98420.15;1732925;82;21303;-77
2022/01/31 04:11:54;;;;;;;16.23;10.38;;;;;;;0.39;100.00;98415.30;1732790;83;21205;-81
2022/01/31 04:14:58;;;;;;;17.12;9.65;;;;;;;0.39;100.00;98413.96;1732767;83;21279;-76
2022/01/31 04:18:02;;;;;;;16.75;10.70;;;;;;;0.41;100.00;98414.63;1733932;81;21342;-77
2022/01/31 04:21:08;;;;;;;18.80;10.75;;;;;;;0.43;100.00;98411.30;1736226;82;21350;-77
2022/01/31 04:24:19;;;;;;;21.45;11.00;;;;;;;0.41;100.00;98402.02;1736475;81;21291;-77
2022/01/31 04:27:19;;;;;;;14.90;9.73;;;;;;;0.44;100.00;98418.36;1735597;81;21311;-77
2022/01/31 04:30:24;;;;;;;16.05;9.93;;;;;;;0.48;100.00;98416.55;1736578;82;21686;-77
2022/01/31 04:33:29;;;;;;;17.57;9.50;;;;;;;0.51;100.00;98412.67;1736600;82;21846;-85
2022/01/31 04:36:34;;;;;;;18.30;10.23;;;;;;;0.53;100.00;98409.34;1723766;82;21212;-86
2022/01/31 04:39:39;;;;;;;22.52;10.72;;;;;;;0.51;100.00;98412.17;1736855;82;21287;-78
2022/01/31 04:42:45;;;;;;;19.90;10.18;;;;;;;0.46;100.00;98421.73;1736927;81;21355;-86
2022/01/31 04:45:49;;;;;;;18.75;10.53;;;;;;;0.42;100.00;98417.16;1736905;82;21339;-78
2022/01/31 04:48:54;;;;;;;18.05;9.98;;;;;;;0.42;100.00;98420.35;1736922;82;21295;-77
2022/01/31 04:51:59;;;;;;;22.13;11.30;;;;;;;0.41;100.00;98415.98;1735767;82;21341;-77
2022/01/31 04:55:03;;;;;;;18.20;10.55;;;;;;;0.36;100.00;98414.27;1736797;82;21307;-85
2022/01/31 04:58:07;;;;;;;18.77;9.65;;;;;;;0.35;100.00;98415.27;1729823;82;21283;-82
2022/01/31 05:01:11;;;;;;;19.37;9.50;;;;;;;0.37;100.00;98421.33;1721925;81;21838;-77
2022/01/31 05:04:15;;;;;;;20.48;11.25;;;;;;;0.32;100.00;98421.80;1736695;82;21291;-86
2022/01/31 05:07:21;;;;;;;18.37;10.23;;;;;;;0.31;100.00;98425.50;1735887;81;21335;-78
2022/01/31 05:10:26;;;;;;;19.62;9.95;;;;;;;0.31;100.00;98421.46;1736700;82;21225;-76
2022/01/31 05:13:32;;;;;;;18.30;9.93;;;;;;;0.33;100.00;98422.64;1736504;82;21876;-78
2022/01/31 05:16:37;;;;;;;16.17;9.63;;;;;;;0.36;100.00;98431.24;1735821;81;21330;-76
2022/01/31 05:19:43;;;;;;;17.77;10.58;;;;;;;0.34;100.00;98427.88;1735680;82;21236;-77
2022/01/31 05:22:49;;;;;;;21.97;10.40;;;;;;;0.35;100.00;98420.66;1735113;81;21641;-76
2022/01/31 05:25:55;;;;;;;17.17;9.70;;;;;;;0.39;100.00;98418.00;1736595;81;21304;-86
2022/01/31 05:29:00;;;;;;;19.02;10.15;;;;;;;0.40;100.00;98431.28;1736635;82;21801;-86
2022/01/31 05:32:06;;;;;;;19.07;10.32;;;;;;;0.39;100.00;98427.41;1736019;82;21825;-86
2022/01/31 05:35:12;;;;;;;16.93;9.90;;;;;;;0.41;100.00;98432.95;1736583;82;21343;-86
2022/01/31 05:38:17;;;;;;;21.68;10.08;;;;;;;0.48;100.00;98443.45;1734529;81;21160;-86
2022/01/31 05:41:21;;;;;;;17.05;9.75;;;;;;;0.53;100.00;98451.05;1733997;81;21350;-77
2022/01/31 05:44:26;;;;;;;16.73;9.18;;;;;;;0.56;100.00;98446.67;1722375;82;21172;-77
2022/01/31 05:47:33;;;;;;;20.02;11.03;;;;;;;0.64;100.00;98456.66;1720931;82;21264;-85
2022/01/31 05:50:39;;;;;;;18.15;8.83;;;;;;;0.65;100.00;98457.83;1730851;81;21149;-84
2022/01/31 05:53:44;;;;;;;18.05;11.25;;;;;;;0.71;100.00;98457.22;1723582;81;21271;-77
2022/01/31 05:56:50;;;;;;;18.32;9.55;;;;;;;0.72;100.00;98458.90;1725679;81;21355;-84
2022/01/31 05:59:55;;;;;;;19.80;9.88;;;;;;;0.73;100.00;98471.34;1724440;82;21293;-85
2022/01/31 06:03:06;;;;;;;24.77;10.05;;;;;;;0.73;99.83;98468.66;1730854;82;21240;-85
2022/01/31 06:06:12;;;;;;;23.42;10.43;;;;;;;0.71;99.48;98466.64;1728585;82;21604;-86
2022/01/31 06:09:18;;;;;;;16.55;9.20;;;;;;;0.78;99.44;98468.69;1728293;81;21824;-77
2022/01/31 06:12:23;;;;;;;21.37;10.50;;;;;;;0.82;98.92;98468.72;1723944;81;21791;-76
2022/01/31 06:15:29;;;;;;;14.28;9.03;;;;;;;0.84;98.38;98476.95;1726089;81;21724;-76
2022/01/31 06:18:36;;;;;;;18.90;9.25;;;;;;;0.83;97.99;98471.23;1726235;82;21287;-77
2022/01/31 06:21:42;;;;;;;18.82;9.28;;;;;;;0.91;97.83;98469.11;1730466;81;21306;-85
2022/01/31 06:24:48;;;;;;;20.57;9.50;;;;;;;1.00;97.69;98463.60;1719708;82;21694;-76
2022/01/31 06:27:57;;;;;;;16.77;9.67;;;;;;;1.09;97.27;98467.18;1725981;82;21290;-77
2022/01/31 06:31:03;;;;;;;16.37;8.35;;;;;;;1.09;96.53;98463.14;1728456;82;22556;-77
2022/01/31 06:34:08;;;;;;;16.50;8.75;;;;;;;1.12;96.45;98461.45;1725684;82;21148;-76
2022/01/31 06:37:14;;;;;;;13.68;8.75;;;;;;;1.12;96.15;98465.49;1726487;81;21160;-76
2022/01/31 06:40:22;;;;;;;16.37;8.43;;;;;;;1.10;95.87;98463.48;1726063;82;21310;-86
2022/01/31 06:43:28;;;;;;;13.43;8.65;;;;;;;1.09;95.84;98465.84;1727892;82;21318;-86
2022/01/31 06:46:34;;;;;;;14.35;8.40;;;;;;;1.08;95.80;98464.13;1727502;82;21306;-88
2022/01/31 06:49:40;;;;;;;13.75;7.92;;;;;;;1.07;95.80;98465.13;1729642;81;21286;-87
2022/01/31 06:52:53;;;;;;;14.43;8.43;;;;;;;1.06;95.80;98471.53;1726076;81;21451;-77
2022/01/31 06:55:56;;;;;;;13.80;7.75;;;;;;;1.07;95.92;98464.30;1725767;81;21313;-77
2022/01/31 06:59:03;;;;;;;16.82;7.72;;;;;;;1.08;95.89;98468.16;1729203;82;21286;-77
2022/01/31 07:02:13;;;;;;;16.48;8.48;;;;;;;1.06;95.89;98472.88;1730504;81;21349;-87
2022/01/31 07:05:21;;;;;;;13.45;8.10;;;;;;;1.06;95.84;98459.92;1726970;82;21317;-88
2022/01/31 07:08:27;;;;;;;15.00;8.43;;;;;;;1.08;95.84;98465.98;1727534;81;21291;-86
2022/01/31 07:11:38;;;;;;;13.88;8.25;;;;;;;1.08;95.83;98466.81;1726737;81;21262;-88
2022/01/31 07:14:41;;;;;;;12.78;7.50;;;;;;;1.06;95.75;98462.11;1727684;81;21617;-79
2022/01/31 07:17:46;;;;;;;13.80;7.92;;;;;;;1.00;95.68;98461.41;1721234;81;21471;-77
2022/01/31 07:21:13;;;;;;;14.93;7.12;;;;;;;1.00;95.93;98464.95;1727501;79;21200;-88
2022/01/31 07:24:45;;;;;;;11.63;7.20;;;;;;;1.04;96.03;98466.83;1729551;82;21223;-88
2022/01/31 07:27:39;;;;;;;14.00;7.75;;;;;;;1.09;96.07;98463.65;1729512;81;21294;-89
2022/01/31 07:31:00;;;;;;;18.12;7.50;;;;;;;1.10;95.99;98474.25;1728532;81;21369;-78
2022/01/31 07:34:07;;;;;;;11.10;6.80;;;;;;;1.14;95.93;98474.27;1725480;82;21318;-78
2022/01/31 07:37:12;;;;;;;11.18;7.03;;;;;;;1.16;95.74;98473.59;1727012;81;21335;-78
2022/01/31 07:40:20;;;;;;;10.70;6.78;;;;;;;1.21;95.77;98486.07;1726611;81;21329;-78
2022/01/31 07:43:18;;;;;;;11.83;7.17;;;;;;;1.26;95.72;98474.81;1724896;81;21171;-87
2022/01/31 07:46:25;;;;;;;7.42;4.92;;;;;;;1.36;95.87;98481.42;1728483;82;21411;-85
2022/01/31 07:49:32;;;;;;;11.48;6.80;;;;;;;1.38;95.72;98484.81;1730196;82;21220;-86
2022/01/31 07:52:38;;;;;;;12.60;6.50;;;;;;;1.39;95.72;98488.68;1728665;81;21330;-87
2022/01/31 07:55:46;;;;;;;10.30;6.30;;;;;;;1.40;95.90;98486.83;1728243;81;21313;-77
2022/01/31 07:58:51;;;;;;;9.60;6.45;;;;;;;1.43;96.03;98491.39;1728395;81;21275;-86
2022/01/31 08:02:00;;;;;;;9.65;6.33;;;;;;;1.47;95.92;98495.96;1730963;81;21306;-89
2022/01/31 08:05:07;;;;;;;11.30;6.42;;;;;;;1.46;95.90;98494.28;1725605;81;21661;-78
2022/01/31 08:08:29;;;;;;;8.30;5.62;;;;;;;1.48;96.02;98503.03;1721747;81;21314;-78
2022/01/31 08:11:38;;;;;;;8.70;6.08;;;;;;;1.53;96.08;98500.69;1727913;82;21731;-78
2022/01/31 08:14:48;;;;;;;8.53;5.37;;;;;;;1.59;95.65;98509.46;1728760;82;21824;-78
2022/01/31 08:17:55;;;;;;;8.40;5.12;;;;;;;1.55;95.48;98505.41;1727420;81;21212;-77
2022/01/31 08:21:03;;;;;;;6.55;5.12;;;;;;;1.56;95.60;98505.77;1726762;82;22224;-78
2022/01/31 08:24:08;;;;;;;11.45;6.25;;;;;;;1.63;95.69;98504.09;1693545;83;21443;-79
2022/01/31 08:27:14;;;;;;;12.10;6.12;;;;;;;1.66;95.61;98501.59;1695333;83;21256;-79
2022/01/31 08:30:25;;;;;;;9.53;5.83;;;;;;;1.65;96.00;98494.01;1693454;83;21296;-78
2022/01/31 08:33:43;;;;;;;7.42;5.12;;;;;;;1.73;96.08;98499.91;1688762;83;21504;-78
2022/01/31 08:36:46;;;;;;;9.55;5.30;;;;;;;1.82;95.87;98498.08;1691547;83;21359;-79
2022/01/31 08:39:56;;;;;;;8.60;5.25;;;;;;;1.88;95.76;98498.76;1693055;83;21511;-87
2022/01/31 08:43:22;;;;;;;7.97;4.87;;;;;;;2.04;95.70;98490.21;1690613;83;21457;-82
2022/01/31 08:46:45;;;;;;;6.25;4.28;;;;;;;2.24;95.18;98490.73;1704321;84;21439;-90
2022/01/31 08:50:01;;;;;;;6.78;5.15;;;;;;;2.33;94.07;98484.00;1677981;84;21236;-89
2022/01/31 08:53:21;;;;;;;6.42;4.78;;;;;;;2.39;93.14;98487.36;1670046;84;21420;-88
2022/01/31 08:56:40;;;;;;;6.05;3.92;;;;;;;2.31;91.55;98488.22;1669736;84;21299;-88
2022/01/31 08:59:50;;;;;;;5.87;4.45;;;;;;;2.26;91.70;98498.17;1702760;83;21323;-88
2022/01/31 09:03:03;;;;;;;5.45;3.83;;;;;;;2.26;91.81;98490.08;1696310;84;21297;-89
2022/01/31 09:06:04;;;;;;;6.33;4.50;;;;;;;2.34;91.97;98484.33;1696753;83;21798;-87
2022/01/31 09:09:21;;;;;;;6.08;4.50;;;;;;;2.43;91.56;98488.20;1692391;83;21335;-88
2022/01/31 09:12:35;;;;;;;5.90;3.87;;;;;;;2.46;91.02;98487.03;1693247;83;21320;-90
2022/01/31 09:15:50;;;;;;;8.60;4.30;;;;;;;2.50;90.88;98488.39;1695932;83;22270;-89
2022/01/31 09:19:03;;;;;;;6.55;3.67;;;;;;;2.56;90.67;98485.84;1700632;83;21257;-92
2022/01/31 09:22:19;;;;;;;7.03;3.83;;;;;;;2.67;90.44;98476.55;1694243;83;21351;-89
2022/01/31 09:25:44;;;;;;;5.92;3.62;;;;;;;2.72;89.84;98476.87;1662570;84;21268;-80
2022/01/31 09:29:07;;;;;;;6.25;2.98;;;;;;;2.79;89.53;98471.65;1689066;84;21257;-81
2022/01/31 09:32:31;;;;;;;4.67;3.05;;;;;;;2.81;88.61;98461.50;1688780;83;21754;-81
2022/01/31 09:35:58;;;;;;;;;;;;;;;;;;;;;
2022/01/31 09:39:11;;;;;;;3.85;2.52;;;;;;;2.82;87.52;98467.23;1664263;84;21781;-90
2022/01/31 09:42:33;;;;;;;4.65;2.70;;;;;;;2.83;87.23;98453.26;1667019;83;21229;-80
2022/01/31 09:45:55;;;;;;;6.17;2.90;;;;;;;2.86;86.91;98460.99;1691747;83;21196;-88
2022/01/31 09:48:55;;;;;;;5.60;2.85;;;;;;;2.88;86.37;98460.33;1680990;83;21308;-89
2022/01/31 09:52:11;;;;;;;4.97;3.05;;;;;;;2.87;85.77;98469.42;1697423;83;21853;-89
2022/01/31 09:55:32;;;;;;;4.60;3.10;;;;;;;2.83;85.68;98475.70;1692990;83;21302;-88
2022/01/31 09:58:53;;;;;;;5.65;2.98;;;;;;;2.84;86.01;98476.53;1692229;83;21537;-89
2022/01/31 10:02:08;;;;;;;6.12;2.80;;;;;;;2.90;86.04;98479.89;1693071;83;21605;-90
2022/01/31 10:05:33;;;;;;;6.50;3.00;;;;;;;2.99;85.56;98481.56;1699520;83;21312;-89
2022/01/31 10:08:38;;;;;;;3.87;2.80;;;;;;;3.05;84.90;98483.05;1694643;83;21340;-89
2022/01/31 10:12:21;;;;;;;6.78;2.60;;;;;;;3.13;84.74;98494.86;1692817;83;21716;-89
2022/01/31 10:19:15;;;;;;;5.25;2.52;;;;;;;3.28;83.53;98487.72;1690010;84;21225;-77
2022/01/31 10:22:23;;;;;;;4.00;2.00;;;;;;;3.33;83.04;98479.41;1691991;83;22238;-87
2022/01/31 10:25:30;;;;;;;4.72;2.50;;;;;;;3.36;82.86;98488.20;1693527;83;21292;-87
2022/01/31 10:28:37;;;;;;;4.53;2.35;;;;;;;3.32;81.76;98493.11;1696014;83;21304;-78
2022/01/31 10:31:42;;;;;;;5.70;2.47;;;;;;;3.28;81.59;98501.23;1686426;84;21334;-78
2022/01/31 10:34:54;;;;;;;5.42;2.17;;;;;;;3.31;81.41;98488.22;1691019;83;21288;-78
2022/01/31 10:38:18;;;;;;;11.00;2.70;;;;;;;3.41;80.63;98487.17;1697211;82;21217;-78
2022/01/31 10:45:20;;;;;;;3.60;2.33;;;;;;;3.46;78.94;98477.52;1697155;82;21951;-78
2022/01/31 10:51:58;;;;;;;5.37;2.65;;;;;;;3.20;79.85;98476.92;1689894;83;21197;-77
2022/01/31 10:54:59;;;;;;;4.62;2.30;;;;;;;3.10;80.45;98481.18;1691442;84;21826;-77
2022/01/31 10:58:16;;;;;;;3.90;1.90;;;;;;;3.03;81.02;98480.20;1688598;84;21387;-78
2022/01/31 11:01:24;;;;;;;4.65;2.47;;;;;;;3.00;81.53;98477.84;1692994;83;21258;-77
2022/01/31 11:04:33;;;;;;;11.08;2.35;;;;;;;3.06;81.92;98483.92;1688743;84;21237;-78
2022/01/31 11:07:40;;;;;;;5.62;2.12;;;;;;;3.05;82.21;98479.51;1685408;83;22289;-77
2022/01/31 11:10:46;;;;;;;5.65;2.90;;;;;;;3.13;82.63;98486.25;1688979;84;21346;-78
2022/01/31 11:13:53;;;;;;;4.15;2.33;;;;;;;3.21;83.10;98479.48;1690178;83;21386;-79
2022/01/31 11:17:02;;;;;;;3.83;2.52;;;;;;;3.27;83.02;98482.83;1691546;83;21474;-89
2022/01/31 11:20:08;;;;;;;5.72;2.35;;;;;;;3.30;83.01;98488.41;1692321;84;21418;-89
2022/01/31 11:23:16;;;;;;;4.58;2.10;;;;;;;3.39;82.92;98481.08;1678389;84;21193;-87
2022/01/31 11:26:21;;;;;;;5.22;2.22;;;;;;;3.54;82.95;98488.30;1697538;84;21185;-88
2022/01/31 11:29:27;;;;;;;6.55;2.58;;;;;;;3.66;81.84;98475.73;1702811;84;21283;-88
2022/01/31 11:32:35;;;;;;;5.33;2.58;;;;;;;3.66;80.87;98477.92;1703251;84;21477;-87
2022/01/31 11:35:41;;;;;;;4.22;1.82;;;;;;;3.67;80.92;98474.70;1701042;82;21306;-78
2022/01/31 11:38:48;;;;;;;6.75;2.42;;;;;;;3.77;80.61;98465.38;1695909;82;21370;-77
2022/01/31 11:42:00;;;;;;;5.10;2.33;;;;;;;3.89;79.65;98479.83;1699528;84;21487;-88
2022/01/31 11:45:14;;;;;;;4.50;2.22;;;;;;;3.95;78.90;98474.56;1702327;84;21416;-88
2022/01/31 11:48:30;;;;;;;3.47;2.15;;;;;;;3.97;78.35;98478.44;1703356;84;22256;-87
2022/01/31 11:51:36;;;;;;;5.45;2.72;;;;;;;3.95;77.87;98499.40;1698874;82;21733;-77
2022/01/31 11:55:00;;;;;;;4.50;2.10;;;;;;;3.80;77.21;98496.09;1704750;84;21524;-76
2022/01/31 11:58:07;;;;;;;5.37;2.20;;;;;;;3.73;77.64;98503.25;1703832;84;21260;-87
2022/01/31 12:01:18;;;;;;;7.25;2.90;;;;;;;3.68;77.93;98505.64;1703175;82;21813;-79
2022/01/31 12:04:23;;;;;;;6.42;2.47;;;;;;;3.63;78.17;98512.60;1696603;84;21330;-78
2022/01/31 12:07:46;;;;;;;5.60;2.37;;;;;;;3.56;78.19;98507.04;1696992;82;21330;-77
2022/01/31 12:10:57;;;;;;;4.37;2.65;;;;;;;3.52;78.50;98502.99;1702787;82;21291;-77
2022/01/31 12:14:09;;;;;;;5.70;2.62;;;;;;;3.52;78.83;98502.99;1700623;84;21169;-77
2022/01/31 12:18:04;;;;;;;4.25;2.37;;;;;;;3.47;78.54;98504.03;1702973;84;21339;-76
2022/01/31 12:24:33;;;;;;;4.95;2.60;;;;;;;3.31;78.26;98503.59;1704938;84;21295;-77
2022/01/31 12:27:55;;;;;;;4.05;2.50;;;;;;;3.30;78.39;98508.67;1699852;82;21319;-88
2022/01/31 12:30:52;;;;;;;5.92;2.75;;;;;;;3.26;78.48;98512.22;1691939;82;21433;-78
2022/01/31 12:33:58;;;;;;;7.97;3.42;;;;;;;3.17;78.85;98514.61;1702173;82;21279;-88
2022/01/31 12:37:11;;;;;;;4.40;2.40;;;;;;;3.10;79.27;98512.76;1703417;82;21335;-78
2022/01/31 12:40:41;;;;;;;5.22;2.33;;;;;;;3.06;79.62;98510.94;1702437;84;21319;-78
2022/01/31 12:46:57;;;;;;;5.65;3.12;;;;;;;2.99;80.19;98524.27;1701944;84;21634;-86
2022/01/31 12:50:29;;;;;;;6.97;3.15;;;;;;;2.98;80.35;98519.05;1698929;84;21790;-85
2022/01/31 12:53:43;;;;;;;5.45;3.08;;;;;;;2.99;80.62;98524.27;1702992;82;21677;-86
2022/01/31 12:56:49;;;;;;;7.42;2.25;;;;;;;2.97;80.59;98539.81;1696486;84;21426;-77
2022/01/31 12:59:55;;;;;;;8.00;1.87;;;;;;;2.88;80.97;98538.13;1697873;84;21635;-87
2022/01/31 13:03:00;;;;;;;4.10;2.42;;;;;;;2.80;81.71;98545.72;1693732;82;21303;-77
2022/01/31 13:06:07;;;;;;;4.30;2.05;;;;;;;2.68;82.56;98555.20;1699480;82;21311;-87
2022/01/31 13:09:16;;;;;;;9.60;2.85;;;;;;;2.60;83.55;98548.95;1695985;84;21324;-87
2022/01/31 13:12:24;;;;;;;6.15;3.45;;;;;;;2.55;83.92;98556.20;1694465;82;21310;-87
2022/01/31 13:15:30;;;;;;;7.87;3.60;;;;;;;2.48;84.29;98554.66;1701108;82;22069;-89
2022/01/31 13:18:39;;;;;;;7.53;4.12;;;;;;;2.45;84.69;98563.11;1700285;84;21256;-89
2022/01/31 13:21:46;;;;;;;8.73;4.05;;;;;;;2.45;85.07;98564.46;1705173;82;21295;-77
2022/01/31 13:24:54;;;;;;;9.58;4.35;;;;;;;2.44;85.46;98571.35;1677901;84;21180;-77
2022/01/31 13:28:01;;;;;;;8.35;4.35;;;;;;;2.43;85.89;98565.11;1702727;83;21287;-88
2022/01/31 13:31:15;;;;;;;10.63;4.78;;;;;;;2.43;86.15;98569.16;1703784;82;21691;-78
2022/01/31 13:34:19;;;;;;;9.40;4.22;;;;;;;2.44;86.30;98581.64;1722691;82;21764;-81
2022/01/31 13:37:52;;;;;;;7.80;4.65;;;;;;;2.45;86.37;98593.30;1729716;81;21500;-89
2022/01/31 13:40:58;;;;;;;10.75;4.30;;;;;;;2.40;86.49;98594.28;1730537;81;21291;-77
2022/01/31 13:44:09;;;;;;;8.98;4.50;;;;;;;2.35;86.84;98596.13;1725526;82;21321;-89
2022/01/31 13:47:15;;;;;;;8.15;4.58;;;;;;;2.34;86.82;98605.74;1727079;82;21310;-88
2022/01/31 13:50:33;;;;;;;9.08;4.25;;;;;;;2.24;86.72;98605.89;1724913;82;21306;-76
2022/01/31 13:53:43;;;;;;;9.50;4.60;;;;;;;2.18;86.56;98614.14;1723844;82;21307;-87
2022/01/31 13:56:58;;;;;;;11.63;4.60;;;;;;;2.13;86.21;98621.89;1725971;82;21354;-85
2022/01/31 14:00:05;;;;;;;11.18;4.97;;;;;;;2.08;86.09;98621.53;1728759;81;21271;-76
2022/01/31 14:03:23;;;;;;;11.78;4.92;;;;;;;2.08;86.02;98628.78;1727274;82;21753;-77
2022/01/31 14:06:29;;;;;;;11.80;5.35;;;;;;;2.00;85.86;98633.63;1726448;81;21196;-78
2022/01/31 14:09:41;;;;;;;9.38;4.65;;;;;;;1.91;86.19;98638.65;1725711;82;21153;-77
2022/01/31 14:12:46;;;;;;;12.65;4.35;;;;;;;1.89;86.41;98641.52;1731162;81;21284;-78
2022/01/31 14:15:56;;;;;;;8.60;3.33;;;;;;;1.89;86.35;98640.17;1723381;82;21335;-88
2022/01/31 14:19:04;;;;;;;6.78;3.75;;;;;;;1.89;86.23;98643.38;1724807;82;21307;-76
2022/01/31 14:22:08;;;;;;;7.30;3.85;;;;;;;1.89;86.03;98652.30;1727002;81;21787;-88
2022/01/31 14:25:19;;;;;;;9.75;4.22;;;;;;;1.86;85.80;98657.17;1718067;82;21267;-88
2022/01/31 14:28:24;;;;;;;6.05;3.77;;;;;;;1.86;85.82;98661.21;1718017;81;21328;-77
2022/01/31 14:31:42;;;;;;;6.28;3.95;;;;;;;1.81;85.40;98673.83;1702564;84;21280;-87
2022/01/31 14:34:48;;;;;;;10.48;4.87;;;;;;;1.71;85.44;98677.98;1691713;84;21238;-88
2022/01/31 14:37:58;;;;;;;10.58;6.42;;;;;;;1.66;85.33;98676.78;1686370;83;21229;-77
2022/01/31 14:41:16;;;;;;;11.10;5.58;;;;;;;1.63;85.26;98679.78;1685211;83;21874;-88
2022/01/31 14:47:47;;;;;;;6.47;4.03;;;;;;;1.63;84.57;98684.66;1690084;83;21343;-88
2022/01/31 14:50:54;;;;;;;9.65;4.70;;;;;;;1.65;84.12;98688.06;1687325;84;21347;-88
2022/01/31 14:54:04;;;;;;;11.08;5.10;;;;;;;1.65;83.52;98688.06;1667666;86;21665;-88
2022/01/31 14:57:08;;;;;;;9.60;4.12;;;;;;;1.60;83.07;98692.22;1694690;84;21229;-87
2022/01/31 15:00:17;;;;;;;7.37;4.05;;;;;;;1.54;83.27;98697.75;1695805;84;21445;-87
2022/01/31 15:03:23;;;;;;;7.47;4.30;;;;;;;1.51;83.46;98707.52;1697260;84;21683;-85
2022/01/31 15:06:28;;;;;;;12.35;3.98;;;;;;;1.50;83.56;98710.68;1697546;83;21304;-77